Terminal Aerodrome Forecast
Issued by NWS Wichita, KS

Home | Current Version | Previous Version | Graphics & Text | Print | Product List | Glossary On
Versions: 1 2 3 4 5 6 7 8 9 10 11 12 13 14 15 16 17 18 19 20 21 22 23 24 25
261
FTUS43 KICT 220522
TAFICT
TAF
KICT 220522Z 2206/2306 14012KT P6SM BKN035
     FM220900 13010KT P6SM OVC025
     FM221700 15016G23KT P6SM BKN035=

USA.gov is the U.S. government's official web portal to all federal, state and local government web resources and services.